Time;durP1;ratioP1;P1;durP2;ratioP2;P2;SDS_P1;SDS_P2;PMS_P1;PMS_P2;Temp;Humidity;BMP_temperature;BMP_pressure;BME280_temperature;BME280_humidity;BME280_pressure;Samples;Min_cycle;Max_cycle;Signal;HPM_P1;HPM_P2
2023/07/08 00:00:24;;;;;;;6.93;3.67;;;18.40;97.30;;;;;;5080801;28;20103;-58
2023/07/08 00:02:50;;;;;;;8.27;3.50;;;18.40;96.70;;;;;;5080505;28;20048;-58
2023/07/08 00:05:19;;;;;;;7.40;3.60;;;18.40;97.70;;;;;;5081404;28;20040;-58
2023/07/08 00:07:46;;;;;;;8.80;3.83;;;18.40;97.50;;;;;;5079773;28;20098;-58
2023/07/08 00:10:15;;;;;;;10.93;3.83;;;18.30;98.10;;;;;;5081560;28;20051;-58
2023/07/08 00:12:42;;;;;;;7.10;3.97;;;18.20;98.10;;;;;;5080266;28;20059;-58
2023/07/08 00:15:09;;;;;;;9.38;4.22;;;18.10;99.90;;;;;;5080923;28;20047;-58
2023/07/08 00:17:35;;;;;;;6.85;3.70;;;18.10;99.90;;;;;;5080706;28;20124;-58
2023/07/08 00:20:01;;;;;;;7.35;3.60;;;18.10;99.90;;;;;;5080008;28;20053;-59
2023/07/08 00:22:26;;;;;;;9.15;4.32;;;18.00;99.90;;;;;;5080938;28;20046;-58
2023/07/08 00:24:52;;;;;;;9.45;3.78;;;18.00;99.90;;;;;;5079351;28;20044;-59
2023/07/08 00:27:17;;;;;;;8.45;3.63;;;18.10;99.90;;;;;;5080372;28;20155;-58
2023/07/08 00:29:43;;;;;;;6.95;3.72;;;18.00;99.90;;;;;;5079701;28;20049;-58
2023/07/08 00:32:15;;;;;;;10.15;3.83;;;18.00;99.90;;;;;;5080948;28;20060;-59
2023/07/08 00:34:41;;;;;;;8.13;3.80;;;18.00;99.90;;;;;;5080530;28;20052;-58
2023/07/08 00:37:12;;;;;;;8.25;3.80;;;18.00;99.90;;;;;;5079861;28;20756;-58
2023/07/08 00:39:38;;;;;;;9.73;4.40;;;17.90;99.90;;;;;;5080933;28;20049;-58
2023/07/08 00:42:24;;;;;;;8.13;3.90;;;17.80;99.90;;;;;;5079362;28;20078;-59
2023/07/08 00:44:50;;;;;;;10.05;4.28;;;17.90;99.90;;;;;;5080034;28;20040;-58
2023/07/08 00:47:16;;;;;;;8.48;4.20;;;17.80;99.90;;;;;;5079718;28;20426;-58
2023/07/08 00:49:57;;;;;;;7.20;3.72;;;17.80;99.90;;;;;;5080103;28;20040;-58
2023/07/08 00:52:24;;;;;;;9.63;4.22;;;17.70;99.90;;;;;;5080525;28;20052;-58
2023/07/08 00:54:59;;;;;;;9.80;3.80;;;17.70;99.90;;;;;;5078753;28;20041;-58
2023/07/08 00:57:29;;;;;;;11.68;4.07;;;17.70;99.90;;;;;;5080553;28;20070;-58
2023/07/08 01:00:09;;;;;;;9.52;4.10;;;17.70;99.90;;;;;;5079492;28;20032;-57
2023/07/08 01:02:41;;;;;;;7.65;4.05;;;17.70;99.90;;;;;;5079594;28;20518;-59
2023/07/08 01:05:14;;;;;;;11.70;4.45;;;17.60;99.90;;;;;;5079905;28;20047;-58
2023/07/08 01:07:43;;;;;;;7.53;4.18;;;17.50;99.90;;;;;;5078393;28;20036;-58
2023/07/08 01:10:16;;;;;;;7.65;4.13;;;17.60;99.90;;;;;;5079461;28;20036;-58
2023/07/08 01:12:45;;;;;;;8.77;4.90;;;17.60;99.90;;;;;;5078135;28;20424;-58
2023/07/08 01:15:14;;;;;;;7.87;4.47;;;17.50;99.90;;;;;;5079768;28;20045;-58
2023/07/08 01:17:41;;;;;;;11.88;4.63;;;17.40;99.90;;;;;;5079651;28;20408;-58
2023/07/08 01:20:14;;;;;;;9.07;4.75;;;17.40;99.90;;;;;;5079327;28;20047;-58
2023/07/08 01:22:42;;;;;;;8.32;4.88;;;17.40;99.90;;;;;;5076109;28;20068;-58
2023/07/08 01:25:09;;;;;;;8.63;4.80;;;17.30;99.90;;;;;;5065160;28;20041;-58
2023/07/08 01:27:41;;;;;;;11.30;4.78;;;17.30;99.90;;;;;;5076709;28;20059;-58
2023/07/08 01:30:07;;;;;;;9.98;4.95;;;17.30;99.90;;;;;;5078949;28;20088;-58
2023/07/08 01:32:37;;;;;;;9.40;4.63;;;17.30;99.90;;;;;;5077413;28;20052;-58
2023/07/08 01:35:04;;;;;;;10.15;4.80;;;17.30;99.90;;;;;;5079471;28;20052;-58
2023/07/08 01:37:36;;;;;;;13.13;5.28;;;17.20;99.90;;;;;;5078088;28;20044;-58
2023/07/08 01:40:21;;;;;;;10.80;4.82;;;17.20;99.90;;;;;;5079714;28;20062;-58
2023/07/08 01:42:47;;;;;;;9.52;4.80;;;17.20;99.90;;;;;;5078551;28;20431;-58
2023/07/08 01:45:16;;;;;;;9.80;5.22;;;17.20;99.90;;;;;;5078871;28;20045;-58
2023/07/08 01:47:46;;;;;;;7.28;4.43;;;17.20;99.90;;;;;;5078725;28;20055;-58
2023/07/08 01:50:11;;;;;;;9.85;4.97;;;17.20;99.90;;;;;;5078224;28;20040;-58
2023/07/08 01:52:38;;;;;;;8.10;4.78;;;17.20;99.90;;;;;;5079105;28;20044;-56
2023/07/08 01:55:05;;;;;;;10.95;5.18;;;17.10;99.90;;;;;;5077177;28;20051;-58
2023/07/08 01:57:31;;;;;;;8.82;5.20;;;17.10;99.90;;;;;;5079084;28;20433;-56
2023/07/08 01:59:56;;;;;;;11.55;5.05;;;17.10;99.90;;;;;;5078253;28;20075;-58
2023/07/08 02:02:24;;;;;;;13.73;5.45;;;17.10;99.90;;;;;;5060302;28;20048;-58
2023/07/08 02:04:49;;;;;;;9.23;5.28;;;17.10;99.90;;;;;;5078680;28;20040;-58
2023/07/08 02:07:16;;;;;;;8.95;4.88;;;17.20;99.90;;;;;;5077468;28;20361;-57
2023/07/08 02:09:41;;;;;;;9.93;4.80;;;17.10;99.90;;;;;;5078517;28;20048;-58
2023/07/08 02:12:07;;;;;;;9.30;5.57;;;17.10;99.90;;;;;;5077322;28;20501;-58
2023/07/08 02:14:33;;;;;;;9.23;5.30;;;17.10;99.90;;;;;;5078931;28;20048;-59
2023/07/08 02:16:59;;;;;;;9.65;5.00;;;17.10;99.90;;;;;;5077634;28;20074;-58
2023/07/08 02:19:25;;;;;;;9.85;4.78;;;17.10;99.90;;;;;;5077222;28;20067;-58
2023/07/08 02:21:51;;;;;;;8.88;4.90;;;17.00;99.90;;;;;;5077607;28;20056;-58
2023/07/08 02:24:17;;;;;;;11.18;5.10;;;17.00;99.90;;;;;;5077683;28;20079;-58
2023/07/08 02:26:43;;;;;;;8.88;4.75;;;17.00;99.90;;;;;;5078470;28;20052;-58
2023/07/08 02:29:09;;;;;;;14.25;6.93;;;16.90;99.90;;;;;;5077172;28;20055;-58
2023/07/08 02:31:34;;;;;;;9.55;5.05;;;17.00;99.90;;;;;;5078760;28;20450;-58
2023/07/08 02:34:02;;;;;;;9.48;5.03;;;16.90;99.90;;;;;;5077279;28;20036;-58
2023/07/08 02:36:28;;;;;;;9.20;4.97;;;16.90;99.90;;;;;;5076708;28;20044;-58
2023/07/08 02:38:54;;;;;;;9.15;5.60;;;16.90;99.90;;;;;;5077776;28;20044;-58
2023/07/08 02:41:20;;;;;;;8.38;4.60;;;16.80;99.90;;;;;;5077627;28;20044;-59
2023/07/08 02:43:45;;;;;;;7.63;4.82;;;16.90;99.90;;;;;;5076927;28;20554;-58
2023/07/08 02:46:11;;;;;;;10.82;4.88;;;16.80;99.90;;;;;;5076865;28;20041;-58
2023/07/08 02:48:37;;;;;;;9.85;5.25;;;16.80;99.90;;;;;;5078476;28;20055;-58
2023/07/08 02:51:05;;;;;;;9.20;4.85;;;16.80;99.90;;;;;;5076913;28;20044;-59
2023/07/08 02:53:30;;;;;;;11.77;5.47;;;16.80;99.90;;;;;;5077406;28;20041;-58
2023/07/08 02:55:56;;;;;;;9.25;4.78;;;16.70;99.90;;;;;;5077774;28;20052;-58
2023/07/08 02:58:22;;;;;;;9.95;5.40;;;16.80;99.90;;;;;;5077455;28;20048;-60
2023/07/08 03:00:52;;;;;;;10.07;5.53;;;16.80;99.90;;;;;;5076942;28;20088;-58
2023/07/08 03:03:18;;;;;;;10.18;5.88;;;16.70;99.90;;;;;;5076558;28;20052;-58
2023/07/08 03:05:44;;;;;;;9.48;5.05;;;16.80;99.90;;;;;;5078011;28;20060;-59
2023/07/08 03:08:09;;;;;;;10.07;5.22;;;16.80;99.90;;;;;;5076087;28;20041;-58
2023/07/08 03:10:35;;;;;;;8.88;5.65;;;16.80;99.90;;;;;;5078022;28;20048;-58
2023/07/08 03:13:01;;;;;;;10.25;5.72;;;16.70;99.90;;;;;;5077091;28;20099;-58
2023/07/08 03:15:26;;;;;;;10.52;6.00;;;16.70;99.90;;;;;;5077184;28;20043;-57
2023/07/08 03:17:57;;;;;;;9.73;5.93;;;16.70;99.90;;;;;;5077956;28;20052;-58
2023/07/08 03:20:23;;;;;;;9.82;5.50;;;16.70;99.90;;;;;;5076659;28;20052;-58
2023/07/08 03:22:48;;;;;;;11.20;5.78;;;16.60;99.90;;;;;;5078132;28;20596;-58
2023/07/08 03:25:14;;;;;;;10.45;5.93;;;16.70;99.90;;;;;;5076720;28;20040;-58
2023/07/08 03:27:40;;;;;;;10.48;6.00;;;16.60;99.90;;;;;;5077943;28;20048;-58
2023/07/08 03:30:06;;;;;;;9.45;5.65;;;16.60;99.90;;;;;;5077283;28;20066;-58
2023/07/08 03:32:32;;;;;;;10.27;5.80;;;16.60;99.90;;;;;;5078679;28;20101;-57
2023/07/08 03:34:57;;;;;;;10.00;5.25;;;16.70;99.90;;;;;;5081611;28;20509;-58
2023/07/08 03:37:23;;;;;;;10.32;5.65;;;16.70;99.90;;;;;;5080399;28;20041;-59
2023/07/08 03:39:49;;;;;;;7.97;5.00;;;16.70;99.90;;;;;;5081779;28;20047;-58
2023/07/08 03:42:14;;;;;;;10.43;6.20;;;16.70;99.90;;;;;;5078706;28;20040;-58
2023/07/08 03:44:40;;;;;;;10.77;6.03;;;16.70;99.90;;;;;;5081640;28;20076;-58
2023/07/08 03:47:08;;;;;;;8.90;5.43;;;16.60;99.90;;;;;;5080899;28;20055;-58
2023/07/08 03:49:33;;;;;;;8.90;5.40;;;16.70;99.90;;;;;;5081109;28;20135;-58
2023/07/08 03:51:59;;;;;;;13.90;6.47;;;16.70;99.90;;;;;;5081326;28;20041;-58
2023/07/08 03:54:25;;;;;;;9.65;6.10;;;16.70;99.90;;;;;;5080327;28;20079;-58
2023/07/08 03:56:51;;;;;;;8.75;5.65;;;16.70;99.90;;;;;;5081379;28;20106;-57
2023/07/08 03:59:18;;;;;;;9.23;5.65;;;16.70;99.90;;;;;;5080211;28;20470;-58
2023/07/08 04:01:44;;;;;;;10.13;6.10;;;16.70;99.90;;;;;;5081375;28;20078;-59
2023/07/08 04:04:13;;;;;;;9.32;5.88;;;16.70;99.90;;;;;;5080460;28;20040;-58
2023/07/08 04:06:38;;;;;;;10.68;5.72;;;16.80;99.90;;;;;;5080130;28;20040;-58
2023/07/08 04:09:04;;;;;;;12.75;6.07;;;16.70;99.90;;;;;;5080879;28;20043;-57
2023/07/08 04:11:30;;;;;;;12.35;5.95;;;16.80;99.90;;;;;;5080110;28;20048;-58
2023/07/08 04:13:55;;;;;;;10.23;5.43;;;16.80;99.90;;;;;;5080680;28;20469;-56
2023/07/08 04:16:23;;;;;;;9.73;5.78;;;16.80;99.90;;;;;;5079736;28;20051;-59
2023/07/08 04:18:50;;;;;;;9.93;5.60;;;16.80;99.90;;;;;;5079735;28;20291;-57
2023/07/08 04:21:17;;;;;;;9.40;5.60;;;16.90;99.90;;;;;;5079694;28;20076;-58
2023/07/08 04:23:43;;;;;;;10.32;6.00;;;16.90;99.90;;;;;;5079168;28;20051;-58
2023/07/08 04:26:09;;;;;;;9.50;5.68;;;16.90;99.90;;;;;;5080559;28;20473;-58
2023/07/08 04:28:36;;;;;;;13.05;6.50;;;17.00;99.90;;;;;;5079976;28;20113;-58
2023/07/08 04:31:01;;;;;;;8.93;5.38;;;17.00;99.90;;;;;;5080676;28;20125;-58
2023/07/08 04:33:27;;;;;;;10.40;5.97;;;17.00;99.90;;;;;;5079542;28;20084;-57
2023/07/08 04:35:54;;;;;;;9.05;5.60;;;17.10;99.90;;;;;;5079658;28;20080;-58
2023/07/08 04:38:24;;;;;;;11.00;6.13;;;17.10;99.90;;;;;;5079650;28;20041;-58
2023/07/08 04:40:51;;;;;;;9.02;5.22;;;17.20;99.90;;;;;;5080286;28;20045;-58
2023/07/08 04:43:18;;;;;;;11.57;6.63;;;17.20;99.90;;;;;;5080352;28;20055;-58
2023/07/08 04:45:47;;;;;;;11.75;6.05;;;17.20;99.90;;;;;;5078798;28;20058;-56
2023/07/08 04:48:16;;;;;;;9.23;5.28;;;17.30;99.90;;;;;;5080442;28;20071;-57
2023/07/08 04:50:44;;;;;;;10.10;5.88;;;17.40;99.90;;;;;;5079090;28;20057;-58
2023/07/08 04:53:10;;;;;;;10.68;5.50;;;17.50;99.90;;;;;;5080649;28;20051;-58
2023/07/08 04:55:41;;;;;;;9.10;6.07;;;17.50;99.90;;;;;;5079670;28;20174;-58
2023/07/08 04:58:08;;;;;;;8.15;5.22;;;17.60;99.90;;;;;;5079420;28;20048;-58
2023/07/08 05:00:33;;;;;;;9.63;6.00;;;17.70;99.90;;;;;;5079859;28;20037;-58
2023/07/08 05:02:59;;;;;;;9.27;5.70;;;17.80;99.90;;;;;;5079267;28;20064;-58
2023/07/08 05:05:25;;;;;;;10.93;5.50;;;17.80;99.90;;;;;;5080357;28;20072;-58
2023/07/08 05:07:51;;;;;;;10.77;5.40;;;18.00;99.90;;;;;;5076896;28;20040;-58
2023/07/08 05:10:17;;;;;;;10.55;5.53;;;18.00;99.90;;;;;;5079165;28;20041;-58
2023/07/08 05:12:44;;;;;;;10.00;5.75;;;18.10;99.90;;;;;;5079010;28;20072;-58
2023/07/08 05:15:10;;;;;;;11.45;5.15;;;18.20;99.90;;;;;;5079343;28;20052;-58
2023/07/08 05:17:38;;;;;;;11.40;5.18;;;18.30;99.90;;;;;;5065750;28;20052;-58
2023/07/08 05:20:08;;;;;;;10.82;5.97;;;18.30;99.90;;;;;;5055149;28;20049;-59
2023/07/08 05:22:34;;;;;;;7.78;5.03;;;18.40;99.90;;;;;;5055927;28;20044;-58
2023/07/08 05:25:00;;;;;;;10.52;6.22;;;18.40;99.90;;;;;;5054312;28;20044;-58
2023/07/08 05:27:27;;;;;;;8.25;5.20;;;18.50;99.90;;;;;;5055686;28;20120;-58
2023/07/08 05:29:53;;;;;;;10.43;5.60;;;18.60;99.90;;;;;;5054429;28;20052;-59
2023/07/08 05:32:19;;;;;;;10.57;5.00;;;18.60;99.90;;;;;;5060037;28;20110;-58
2023/07/08 05:34:45;;;;;;;8.57;5.20;;;18.70;99.90;;;;;;5066952;28;20040;-58
2023/07/08 05:37:12;;;;;;;10.48;5.05;;;18.70;99.90;;;;;;5054173;28;20049;-58
2023/07/08 05:39:38;;;;;;;9.02;5.20;;;18.80;99.90;;;;;;5055116;28;20070;-58
2023/07/08 05:42:04;;;;;;;9.00;5.30;;;18.90;99.90;;;;;;5054170;28;20048;-58
2023/07/08 05:44:29;;;;;;;8.32;5.38;;;18.90;99.90;;;;;;5055310;28;20441;-58
2023/07/08 05:46:55;;;;;;;8.75;5.20;;;19.00;99.90;;;;;;5054305;28;20091;-59
2023/07/08 05:49:21;;;;;;;7.90;5.22;;;19.10;99.90;;;;;;5055206;28;20435;-58
2023/07/08 05:51:47;;;;;;;10.32;4.90;;;19.20;99.90;;;;;;5054348;28;20048;-58
2023/07/08 05:54:14;;;;;;;8.60;5.43;;;19.20;99.90;;;;;;5064997;28;20119;-58
2023/07/08 05:56:39;;;;;;;9.90;4.95;;;19.20;99.90;;;;;;5074656;28;20496;-58
2023/07/08 05:59:05;;;;;;;8.40;4.90;;;19.30;99.90;;;;;;5073758;28;20052;-58
2023/07/08 06:01:31;;;;;;;9.32;4.93;;;19.20;99.90;;;;;;5074900;28;20052;-58
2023/07/08 06:03:59;;;;;;;8.57;4.90;;;19.30;99.90;;;;;;5073677;28;20105;-58
2023/07/08 06:06:25;;;;;;;8.35;4.80;;;19.40;99.90;;;;;;5074728;28;20095;-58
2023/07/08 06:08:51;;;;;;;8.52;4.65;;;19.50;99.90;;;;;;5074562;28;20091;-58
2023/07/08 06:11:17;;;;;;;9.32;4.93;;;19.50;99.90;;;;;;5073945;28;20040;-58
2023/07/08 06:13:43;;;;;;;7.47;4.18;;;19.60;99.90;;;;;;5074817;28;20056;-58
2023/07/08 06:16:08;;;;;;;8.60;4.75;;;19.60;99.90;;;;;;5073009;28;20049;-59
2023/07/08 06:18:34;;;;;;;7.78;5.10;;;19.70;99.90;;;;;;5075021;28;20032;-58
2023/07/08 06:21:01;;;;;;;8.45;4.63;;;19.80;99.90;;;;;;5073693;28;20107;-59
2023/07/08 06:23:27;;;;;;;8.32;4.75;;;19.90;99.90;;;;;;5075160;28;20082;-58
2023/07/08 06:25:53;;;;;;;8.93;4.78;;;20.00;99.90;;;;;;5073079;28;20048;-58
2023/07/08 06:28:19;;;;;;;8.20;5.45;;;20.00;99.90;;;;;;5073647;28;20289;-58
2023/07/08 06:30:45;;;;;;;10.27;4.72;;;20.10;99.90;;;;;;5074684;28;20040;-58
2023/07/08 06:33:11;;;;;;;8.70;4.57;;;20.10;99.90;;;;;;5071379;28;20105;-58
2023/07/08 06:35:38;;;;;;;7.97;4.38;;;20.20;99.90;;;;;;5060347;28;20140;-58
2023/07/08 06:38:04;;;;;;;9.27;4.45;;;20.20;99.90;;;;;;5070321;28;20048;-58
2023/07/08 06:40:30;;;;;;;6.80;4.00;;;20.30;99.90;;;;;;5054162;28;20059;-57
2023/07/08 06:42:55;;;;;;;8.32;4.30;;;20.40;99.90;;;;;;5057355;28;20056;-58
2023/07/08 06:45:21;;;;;;;7.25;4.00;;;20.50;99.90;;;;;;5063100;28;20057;-58
2023/07/08 06:47:47;;;;;;;7.18;4.28;;;20.70;99.90;;;;;;5054706;28;20071;-58
2023/07/08 06:50:13;;;;;;;9.15;4.55;;;20.70;99.90;;;;;;5060018;28;20093;-58
2023/07/08 06:52:38;;;;;;;7.55;4.30;;;20.80;99.90;;;;;;5062909;28;20069;-59
2023/07/08 06:55:08;;;;;;;9.18;4.30;;;20.90;99.90;;;;;;5062801;28;20094;-59
2023/07/08 06:57:34;;;;;;;7.93;3.90;;;20.90;98.90;;;;;;5059356;28;20060;-58
2023/07/08 07:00:00;;;;;;;9.40;3.72;;;21.00;99.90;;;;;;5053720;28;20045;-58
2023/07/08 07:02:27;;;;;;;8.85;4.32;;;21.20;99.90;;;;;;5051912;28;20055;-58
2023/07/08 07:04:52;;;;;;;7.90;3.63;;;21.20;99.90;;;;;;5053221;28;20048;-58
2023/07/08 07:07:18;;;;;;;6.47;3.80;;;21.30;99.80;;;;;;5051900;28;20053;-58
2023/07/08 07:09:44;;;;;;;8.40;3.72;;;21.40;98.90;;;;;;5053766;28;20052;-58
2023/07/08 07:12:10;;;;;;;7.97;3.85;;;21.40;97.50;;;;;;5052446;28;20108;-58
2023/07/08 07:14:36;;;;;;;6.68;3.30;;;21.50;96.60;;;;;;5054880;28;20508;-57
2023/07/08 07:17:02;;;;;;;8.18;3.75;;;21.60;95.00;;;;;;5072800;28;20123;-58
2023/07/08 07:19:27;;;;;;;6.97;4.13;;;21.70;95.00;;;;;;5073444;28;20185;-59
2023/07/08 07:21:53;;;;;;;7.07;3.70;;;21.80;94.70;;;;;;5074048;28;20061;-60
2023/07/08 07:24:19;;;;;;;7.18;3.80;;;21.80;91.50;;;;;;5062265;28;20041;-58
2023/07/08 07:26:44;;;;;;;7.05;3.92;;;21.80;91.10;;;;;;5068469;28;20044;-59
2023/07/08 07:29:10;;;;;;;6.43;3.45;;;21.90;89.90;;;;;;5072043;28;20052;-58
2023/07/08 07:31:39;;;;;;;7.68;3.50;;;22.10;92.20;;;;;;5073554;28;20047;-58
2023/07/08 07:34:05;;;;;;;9.82;4.28;;;22.20;91.70;;;;;;5064010;28;20044;-57
2023/07/08 07:36:30;;;;;;;6.95;4.10;;;22.30;91.20;;;;;;5053440;28;20100;-58
2023/07/08 07:38:56;;;;;;;6.72;3.30;;;22.30;89.10;;;;;;5053589;28;20037;-58
2023/07/08 07:41:23;;;;;;;7.38;3.40;;;22.30;86.70;;;;;;5052579;28;20044;-58
2023/07/08 07:43:48;;;;;;;6.88;3.45;;;22.40;88.10;;;;;;5054113;28;20502;-58
2023/07/08 07:46:14;;;;;;;7.35;3.30;;;22.60;87.90;;;;;;5052662;28;20103;-58
2023/07/08 07:48:40;;;;;;;7.03;3.80;;;22.60;86.90;;;;;;5054011;28;20069;-58
2023/07/08 07:51:10;;;;;;;7.97;3.50;;;22.70;81.80;;;;;;5052723;28;20083;-58
2023/07/08 07:53:39;;;;;;;6.22;3.17;;;22.70;86.10;;;;;;5058497;28;20053;-57
2023/07/08 07:56:05;;;;;;;6.75;3.28;;;22.80;84.80;;;;;;5073652;28;20037;-58
2023/07/08 07:58:31;;;;;;;7.63;3.53;;;23.00;81.70;;;;;;5072993;28;20059;-58
2023/07/08 08:00:56;;;;;;;7.38;3.60;;;23.00;81.80;;;;;;5073713;28;20393;-58
2023/07/08 08:03:22;;;;;;;6.95;3.15;;;23.00;81.50;;;;;;5071724;28;20135;-58
2023/07/08 08:05:48;;;;;;;6.30;3.30;;;23.20;82.20;;;;;;5073113;28;20041;-58
2023/07/08 08:08:15;;;;;;;7.10;3.17;;;23.20;81.20;;;;;;5071991;28;20079;-59
2023/07/08 08:10:42;;;;;;;7.25;3.50;;;23.30;81.00;;;;;;5073294;28;20040;-59
2023/07/08 08:13:08;;;;;;;9.63;3.25;;;23.40;78.70;;;;;;5074513;28;20098;-55
2023/07/08 08:15:34;;;;;;;8.13;3.58;;;23.40;78.60;;;;;;5076059;28;20056;-59
2023/07/08 08:18:00;;;;;;;6.18;3.65;;;23.60;79.80;;;;;;5075746;28;20044;-59
2023/07/08 08:20:26;;;;;;;6.80;3.50;;;23.70;78.50;;;;;;5077884;28;20067;-59
2023/07/08 08:22:52;;;;;;;7.45;3.50;;;23.80;78.90;;;;;;5080785;28;20093;-58
2023/07/08 08:25:19;;;;;;;6.97;3.40;;;23.90;77.80;;;;;;5079843;28;20044;-59
2023/07/08 08:27:45;;;;;;;6.97;3.30;;;23.90;75.90;;;;;;5080154;28;20100;-59
2023/07/08 08:30:12;;;;;;;7.13;3.40;;;23.90;72.20;;;;;;5080315;28;20048;-59
2023/07/08 08:32:38;;;;;;;6.90;3.85;;;23.90;67.10;;;;;;5080180;28;20084;-59
2023/07/08 08:35:04;;;;;;;6.47;3.08;;;24.00;70.20;;;;;;5080396;28;20041;-59
2023/07/08 08:37:30;;;;;;;7.40;3.35;;;24.10;69.70;;;;;;5079027;28;20041;-59
2023/07/08 08:39:56;;;;;;;7.05;3.28;;;24.10;69.90;;;;;;5080585;28;20040;-59
2023/07/08 08:42:40;;;;;;;6.55;3.35;;;24.30;69.00;;;;;;5072521;28;20041;-59
2023/07/08 08:45:09;;;;;;;5.78;2.95;;;24.30;68.10;;;;;;5068434;28;20102;-59
2023/07/08 08:47:43;;;;;;;7.18;2.95;;;24.50;69.30;;;;;;5066770;28;20052;-59
2023/07/08 08:50:30;;;;;;;6.38;3.00;;;24.40;66.80;;;;;;5068317;28;20479;-59
2023/07/08 08:52:58;;;;;;;7.75;3.10;;;24.50;63.00;;;;;;5072266;28;20496;-59
2023/07/08 08:55:24;;;;;;;6.07;3.15;;;24.60;61.80;;;;;;5069633;28;20041;-59
2023/07/08 08:57:59;;;;;;;6.72;3.60;;;24.70;63.80;;;;;;5071045;28;20186;-59
2023/07/08 09:00:45;;;;;;;8.48;3.85;;;24.80;66.20;;;;;;5063598;28;20041;-59
2023/07/08 09:03:17;;;;;;;8.00;3.95;;;24.90;59.30;;;;;;5070623;28;20541;-59
2023/07/08 09:05:46;;;;;;;6.80;3.30;;;25.00;58.80;;;;;;5068415;28;20060;-59
2023/07/08 09:08:28;;;;;;;6.45;3.20;;;25.10;62.60;;;;;;5058738;28;20106;-59
2023/07/08 09:11:01;;;;;;;6.90;3.25;;;25.20;61.40;;;;;;5059742;28;20048;-59
2023/07/08 09:13:35;;;;;;;6.57;3.53;;;25.20;59.50;;;;;;5062696;28;20111;-59
2023/07/08 09:16:24;;;;;;;6.18;3.10;;;25.30;58.00;;;;;;5067557;28;20106;-59
2023/07/08 09:18:50;;;;;;;6.15;2.95;;;25.40;60.90;;;;;;5059714;28;20049;-59
2023/07/08 09:21:45;;;;;;;6.88;3.08;;;25.40;59.40;;;;;;5059272;28;20044;-60
2023/07/08 09:24:24;;;;;;;7.05;3.17;;;25.50;57.10;;;;;;5058584;28;20049;-59
2023/07/08 09:26:51;;;;;;;5.90;2.92;;;25.60;57.90;;;;;;5065782;28;20053;-59
2023/07/08 09:29:18;;;;;;;8.27;3.13;;;25.70;59.70;;;;;;5069121;28;20041;-60
2023/07/08 09:31:43;;;;;;;7.05;3.08;;;25.80;59.90;;;;;;5058583;28;20037;-59
2023/07/08 09:34:38;;;;;;;8.15;3.33;;;25.80;59.70;;;;;;5069532;28;20093;-59
2023/07/08 09:37:17;;;;;;;6.10;3.08;;;25.90;58.80;;;;;;5058531;28;20059;-59
2023/07/08 09:39:43;;;;;;;7.82;3.17;;;25.90;57.10;;;;;;5064910;28;20037;-59
2023/07/08 09:42:09;;;;;;;6.45;3.00;;;26.00;55.10;;;;;;5069520;28;20050;-59
2023/07/08 09:44:38;;;;;;;5.75;2.88;;;26.20;56.10;;;;;;5059190;28;20037;-59
2023/07/08 09:47:30;;;;;;;6.60;2.78;;;26.20;54.30;;;;;;5058700;28;20073;-59
2023/07/08 09:49:57;;;;;;;6.78;3.00;;;26.20;52.20;;;;;;5069109;28;20111;-59
2023/07/08 09:52:23;;;;;;;6.43;2.90;;;26.30;51.00;;;;;;5058705;28;20475;-59
2023/07/08 09:54:49;;;;;;;7.85;2.95;;;26.50;50.80;;;;;;5073231;28;20037;-60
2023/07/08 09:57:28;;;;;;;8.50;3.08;;;26.50;50.50;;;;;;5078628;28;20044;-57
2023/07/08 10:00:02;;;;;;;6.55;3.05;;;26.50;48.90;;;;;;5075618;28;20045;-57
2023/07/08 10:02:35;;;;;;;6.45;2.85;;;26.60;47.00;;;;;;5062773;28;20056;-57
2023/07/08 10:05:17;;;;;;;7.38;3.20;;;26.80;49.20;;;;;;5069770;28;20037;-57
2023/07/08 10:07:45;;;;;;;6.30;3.00;;;26.80;44.70;;;;;;5056848;28;20049;-57
2023/07/08 10:10:15;;;;;;;8.00;2.72;;;26.90;46.90;;;;;;5058238;28;20048;-57
2023/07/08 10:12:54;;;;;;;6.97;3.40;;;27.10;43.60;;;;;;5057789;28;20141;-57
2023/07/08 10:15:47;;;;;;;6.65;3.10;;;27.20;42.70;;;;;;5057342;28;20053;-57
2023/07/08 10:18:17;;;;;;;7.60;3.00;;;27.20;37.20;;;;;;5058395;28;20084;-56
2023/07/08 10:21:01;;;;;;;7.68;3.03;;;27.20;36.60;;;;;;5057199;28;20451;-57
2023/07/08 10:23:58;;;;;;;9.55;3.13;;;27.20;34.50;;;;;;5060361;28;20083;-57
2023/07/08 10:26:31;;;;;;;11.80;4.15;;;27.20;35.60;;;;;;5076786;28;20052;-57
2023/07/08 10:29:23;;;;;;;6.88;3.03;;;27.20;35.70;;;;;;5060979;28;20059;-59
2023/07/08 10:32:16;;;;;;;6.10;2.88;;;27.30;35.00;;;;;;5062465;28;20127;-59
2023/07/08 10:34:57;;;;;;;6.55;3.33;;;27.40;34.30;;;;;;5064486;28;20060;-60
2023/07/08 10:37:32;;;;;;;5.77;2.93;;;27.60;33.40;;;;;;5060770;28;20254;-60
2023/07/08 10:40:11;;;;;;;7.35;3.10;;;27.60;34.50;;;;;;5053614;28;20073;-60
2023/07/08 10:43:01;;;;;;;6.05;2.92;;;27.70;32.80;;;;;;5052009;28;20813;-59
2023/07/08 10:45:53;;;;;;;6.97;3.03;;;27.70;32.10;;;;;;5052472;28;20118;-60
2023/07/08 10:48:24;;;;;;;6.47;2.92;;;27.90;35.10;;;;;;5053367;28;20496;-59
2023/07/08 10:51:22;;;;;;;7.70;3.53;;;27.90;31.30;;;;;;5052481;28;20106;-60
2023/07/08 10:54:19;;;;;;;9.70;3.47;;;28.10;31.80;;;;;;5063791;28;20045;-56
2023/07/08 10:56:53;;;;;;;6.20;3.30;;;28.20;31.00;;;;;;5063897;28;20045;-58
2023/07/08 10:59:37;;;;;;;6.82;3.30;;;28.10;31.00;;;;;;5062562;28;20049;-58
2023/07/08 11:02:35;;;;;;;6.57;3.28;;;28.20;31.20;;;;;;5064152;28;20152;-58
2023/07/08 11:05:16;;;;;;;6.20;2.75;;;28.30;28.40;;;;;;5061282;28;20104;-58
2023/07/08 11:07:55;;;;;;;6.38;3.03;;;28.40;30.20;;;;;;5061552;28;20061;-58
2023/07/08 11:10:29;;;;;;;7.30;3.22;;;28.40;29.40;;;;;;5062831;28;20053;-58
2023/07/08 11:13:18;;;;;;;7.07;3.20;;;28.50;30.00;;;;;;5057625;28;20052;-57
2023/07/08 11:16:34;;;;;;;6.70;3.10;;;28.50;28.50;;;;;;5061951;28;20087;-58
2023/07/08 11:19:13;;;;;;;7.63;3.65;;;28.50;27.80;;;;;;5038985;28;20041;-58
2023/07/08 11:21:51;;;;;;;7.55;3.10;;;28.70;30.30;;;;;;5038919;28;20046;-58
2023/07/08 11:24:39;;;;;;;6.97;3.50;;;28.80;30.50;;;;;;5045038;28;20120;-58
2023/07/08 11:27:26;;;;;;;8.02;3.17;;;28.90;30.40;;;;;;5064321;28;20097;-58
2023/07/08 11:29:58;;;;;;;8.15;3.17;;;29.00;26.50;;;;;;5059054;28;20038;-58
2023/07/08 11:32:28;;;;;;;7.15;3.30;;;29.10;27.70;;;;;;5057717;28;20041;-58
2023/07/08 11:34:57;;;;;;;6.53;3.20;;;29.10;27.70;;;;;;5063365;28;20144;-58
2023/07/08 11:37:24;;;;;;;6.00;3.20;;;29.10;28.80;;;;;;5056520;28;20044;-58
2023/07/08 11:40:23;;;;;;;5.88;3.30;;;29.20;27.60;;;;;;5069613;28;20077;-58
2023/07/08 11:42:55;;;;;;;6.30;2.97;;;29.40;25.40;;;;;;5053128;28;20041;-58
2023/07/08 11:45:36;;;;;;;6.55;2.90;;;29.40;27.10;;;;;;5052647;28;20041;-58
2023/07/08 11:48:16;;;;;;;6.60;3.20;;;29.50;23.50;;;;;;5056201;28;20075;-58
2023/07/08 11:50:46;;;;;;;6.90;3.28;;;29.50;23.20;;;;;;5056076;28;20043;-58
2023/07/08 11:53:37;;;;;;;7.10;3.35;;;29.60;24.80;;;;;;5072780;28;20036;-58
2023/07/08 11:56:22;;;;;;;6.55;3.42;;;29.70;22.50;;;;;;5053985;28;20057;-58
2023/07/08 11:58:47;;;;;;;6.80;3.20;;;29.80;20.00;;;;;;5063027;28;20033;-57
2023/07/08 12:01:13;;;;;;;5.95;3.13;;;29.90;22.30;;;;;;5061220;28;20045;-57
2023/07/08 12:04:16;;;;;;;6.60;3.63;;;29.90;21.80;;;;;;5060179;28;20398;-58
2023/07/08 12:07:03;;;;;;;7.25;3.42;;;29.90;21.20;;;;;;5060327;28;20045;-58
2023/07/08 12:09:36;;;;;;;7.35;3.53;;;30.00;20.90;;;;;;5061186;28;20084;-56
2023/07/08 12:12:07;;;;;;;6.20;3.33;;;30.00;19.40;;;;;;5059555;28;20060;-58
2023/07/08 12:14:33;;;;;;;7.85;3.38;;;30.00;20.00;;;;;;5061261;28;20163;-58
2023/07/08 12:16:59;;;;;;;8.30;3.85;;;30.10;22.10;;;;;;5060567;28;20072;-57
2023/07/08 12:19:28;;;;;;;8.30;3.95;;;30.10;21.90;;;;;;5060086;28;20067;-58
2023/07/08 12:21:54;;;;;;;6.90;3.65;;;30.30;21.60;;;;;;5060941;28;20116;-58
2023/07/08 12:24:26;;;;;;;7.55;3.58;;;30.30;21.90;;;;;;5058427;28;20041;-58
2023/07/08 12:26:52;;;;;;;7.20;3.35;;;30.20;21.40;;;;;;5060903;28;20072;-58
2023/07/08 12:29:18;;;;;;;6.43;3.53;;;30.30;21.40;;;;;;5059991;28;20112;-58
2023/07/08 12:31:43;;;;;;;7.15;3.22;;;30.40;21.30;;;;;;5060936;28;20048;-58
2023/07/08 12:34:16;;;;;;;7.03;3.35;;;30.40;20.60;;;;;;5059969;28;20045;-57
2023/07/08 12:36:44;;;;;;;6.40;3.50;;;30.50;20.40;;;;;;5064525;28;20037;-58
2023/07/08 12:39:15;;;;;;;8.15;3.53;;;30.60;20.50;;;;;;5057921;28;20048;-57
2023/07/08 12:41:42;;;;;;;7.13;3.50;;;30.60;17.50;;;;;;5059613;28;20632;-58
2023/07/08 12:44:26;;;;;;;8.65;3.53;;;30.70;19.60;;;;;;5063265;28;20055;-57
2023/07/08 12:46:54;;;;;;;7.03;3.90;;;30.80;16.00;;;;;;5068497;28;20416;-59
2023/07/08 12:49:23;;;;;;;8.60;3.60;;;30.90;18.90;;;;;;5070077;28;20099;-58
2023/07/08 12:51:50;;;;;;;7.55;3.58;;;30.90;17.30;;;;;;5070717;28;20036;-58
2023/07/08 12:54:16;;;;;;;6.28;3.45;;;30.90;17.00;;;;;;5073610;28;20049;-59
2023/07/08 12:56:45;;;;;;;6.40;3.70;;;30.90;14.60;;;;;;5080337;28;20044;-58
2023/07/08 12:59:16;;;;;;;6.93;3.65;;;30.80;15.20;;;;;;5078976;28;20044;-58